createdAt,value
2023-03-21T05:03:39.877Z,9.15
2023-03-21T05:07:43.062Z,9.19
2023-03-21T05:11:45.900Z,9.22
2023-03-21T05:15:50.195Z,9.23
2023-03-21T05:19:56.397Z,9.17
2023-03-21T05:24:03.449Z,9.15
2023-03-21T05:28:08.324Z,9.21
2023-03-21T05:32:11.463Z,9.22
2023-03-21T05:36:16.638Z,9.19
2023-03-21T05:40:19.819Z,9.14
2023-03-21T05:44:22.482Z,9.21
2023-03-21T05:48:25.345Z,9.19
2023-03-21T05:52:58.174Z,9.27
2023-03-21T05:57:01.201Z,9.24
2023-03-21T06:01:26.627Z,9.19
2023-03-21T06:05:40.914Z,9.19
2023-03-21T06:09:51.526Z,9.22
2023-03-21T06:13:54.434Z,9.25
2023-03-21T06:17:58.868Z,9.28
2023-03-21T06:22:01.954Z,9.29
2023-03-21T06:26:08.049Z,9.25
2023-03-21T06:30:12.819Z,9.24
2023-03-21T06:34:34.705Z,9.34
2023-03-21T06:38:38.262Z,9.56
2023-03-21T06:42:43.232Z,9.84
2023-03-21T06:46:47.251Z,9.88
2023-03-21T06:50:55.166Z,10.05
2023-03-21T06:54:59.482Z,10.12
2023-03-21T06:59:03.608Z,10.34
2023-03-21T07:03:29.507Z,10.28
2023-03-21T07:07:33.492Z,10.43
2023-03-21T07:11:37.908Z,10.59
2023-03-21T07:15:43.036Z,10.81
2023-03-21T07:19:45.638Z,10.89
2023-03-21T07:23:50.275Z,10.93
2023-03-21T07:27:52.798Z,11.04
2023-03-21T07:31:56.756Z,11.01
2023-03-21T07:36:00.055Z,11.00
2023-03-21T07:40:07.004Z,10.72
2023-03-21T07:44:10.239Z,10.56
2023-03-21T07:48:14.626Z,10.67
2023-03-21T07:52:17.154Z,10.53
2023-03-21T07:56:20.535Z,10.43
2023-03-21T08:00:23.739Z,10.48
2023-03-21T08:04:27.895Z,10.55
2023-03-21T08:08:30.392Z,10.88
2023-03-21T08:12:32.927Z,11.10
2023-03-21T08:16:35.440Z,11.00
2023-03-21T08:20:39.360Z,11.06
2023-03-21T08:24:41.984Z,11.37
2023-03-21T08:28:44.826Z,11.56
2023-03-21T08:32:47.342Z,11.80
2023-03-21T08:36:51.235Z,11.72
2023-03-21T08:40:53.758Z,11.89
2023-03-21T08:44:56.278Z,11.63
2023-03-21T08:48:58.880Z,11.71
2023-03-21T08:53:02.760Z,12.09
2023-03-21T09:36:35.333Z,13.41
2023-03-21T09:40:52.621Z,13.50
2023-03-21T09:45:08.646Z,13.76
2023-03-21T09:49:17.976Z,13.56
2023-03-21T09:53:28.856Z,13.81
2023-03-21T09:57:35.178Z,13.90
2023-03-21T10:01:41.947Z,14.17
2023-03-21T10:05:48.637Z,14.29
2023-03-21T10:09:53.223Z,14.39
2023-03-21T10:13:58.045Z,14.48
2023-03-21T10:18:03.029Z,14.82
2023-03-21T10:22:05.635Z,14.95
2023-03-21T10:26:11.512Z,15.09
2023-03-21T10:30:24.344Z,15.18
2023-03-21T10:34:32.889Z,15.21
2023-03-21T10:38:36.307Z,15.24
2023-03-21T10:42:40.371Z,15.33
2023-03-21T10:46:52.605Z,15.45
2023-03-21T10:50:56.648Z,15.47
2023-03-21T10:55:16.608Z,16.12
2023-03-21T10:59:23.191Z,16.20
2023-03-21T11:03:31.304Z,15.86
2023-03-21T11:07:34.022Z,15.48
2023-03-21T11:11:39.562Z,15.60
2023-03-21T11:15:53.027Z,15.59
2023-03-21T11:19:58.209Z,15.55
2023-03-21T11:24:00.903Z,15.56
2023-03-21T11:28:09.409Z,15.43
2023-03-21T11:32:20.880Z,15.26
2023-03-21T11:36:34.744Z,15.08
2023-03-21T11:40:39.485Z,14.90
2023-03-21T11:44:45.275Z,14.68
2023-03-21T11:48:50.186Z,14.64
2023-03-21T11:53:21.301Z,14.73
2023-03-21T11:57:34.138Z,14.84
2023-03-21T12:01:47.612Z,15.19
2023-03-21T12:05:54.383Z,15.30
2023-03-21T12:10:12.439Z,15.04
2023-03-21T12:14:23.708Z,15.08
2023-03-21T12:18:42.156Z,15.01
2023-03-21T12:22:57.858Z,14.23
2023-03-21T12:27:10.268Z,13.90
2023-03-21T12:31:25.105Z,13.77
2023-03-21T12:35:45.908Z,13.91
2023-03-21T12:39:51.518Z,13.90
2023-03-21T12:43:59.508Z,13.82
2023-03-21T12:48:16.515Z,13.88
2023-03-21T12:52:24.836Z,14.23
2023-03-21T12:56:32.348Z,14.20
2023-03-21T13:00:39.165Z,13.97
2023-03-21T13:04:48.281Z,13.91
2023-03-21T13:08:57.425Z,13.64
2023-03-21T13:13:10.110Z,13.56
2023-03-21T13:17:20.433Z,13.75
2023-03-21T13:21:33.187Z,13.77
2023-03-21T13:25:43.325Z,13.70
2023-03-21T13:29:49.681Z,13.57
2023-03-21T13:33:53.935Z,13.43
2023-03-21T13:37:59.390Z,13.44
2023-03-21T13:42:06.924Z,13.27
2023-03-21T13:46:12.714Z,13.23
2023-03-21T13:50:30.133Z,13.19
2023-03-21T13:54:53.135Z,13.34
2023-03-21T13:59:00.618Z,13.08
2023-03-21T14:03:10.466Z,13.10
2023-03-21T14:07:19.924Z,13.05
2023-03-21T14:11:23.813Z,12.89
2023-03-21T14:15:30.475Z,12.92
2023-03-21T14:19:34.338Z,12.77
2023-03-21T14:23:39.493Z,12.80
2023-03-21T14:27:44.439Z,12.87
2023-03-21T14:31:48.448Z,12.98
2023-03-21T14:35:52.440Z,13.01
2023-03-21T14:40:00.397Z,13.04
2023-03-21T14:44:12.061Z,13.04
2023-03-21T14:48:17.262Z,12.78
2023-03-21T14:52:25.804Z,12.79
2023-03-21T14:56:28.481Z,12.70
2023-03-21T15:00:32.193Z,12.68
2023-03-21T15:04:34.822Z,12.75
2023-03-21T15:08:40.276Z,12.69
2023-03-21T15:12:51.065Z,12.58
2023-03-21T15:16:54.787Z,12.52
2023-03-21T15:21:03.296Z,12.43
2023-03-21T15:25:09.922Z,12.22
2023-03-21T15:29:14.645Z,12.07
2023-03-21T15:33:18.124Z,12.06
2023-03-21T15:37:24.345Z,12.22
2023-03-21T15:41:31.358Z,12.22
2023-03-21T15:45:34.118Z,12.24
2023-03-21T15:49:41.341Z,12.12
2023-03-21T15:53:44.351Z,12.05
2023-03-21T15:57:50.010Z,11.99
2023-03-21T16:01:52.824Z,11.90
2023-03-21T16:06:17.568Z,11.93
2023-03-21T16:10:28.850Z,11.87
2023-03-21T16:14:32.693Z,11.81
2023-03-21T16:18:35.609Z,11.90
2023-03-21T16:22:38.126Z,11.99
2023-03-21T16:26:45.697Z,11.91
2023-03-21T16:30:49.618Z,11.86
2023-03-21T16:34:53.606Z,11.80
2023-03-21T16:38:57.109Z,11.74
2023-03-21T16:42:59.717Z,11.73
2023-03-21T16:47:03.612Z,11.76
2023-03-21T16:51:06.470Z,11.76
2023-03-21T16:55:09.626Z,11.71
2023-03-21T16:59:13.482Z,11.67
2023-03-21T17:03:19.289Z,11.60
2023-03-21T17:07:22.008Z,11.61
2023-03-21T17:11:26.964Z,11.51
2023-03-21T17:15:29.506Z,11.47
2023-03-21T17:19:33.367Z,11.48
2023-03-21T17:23:36.027Z,11.41
2023-03-21T17:27:38.689Z,11.36
2023-03-21T17:31:41.256Z,11.43
2023-03-21T17:35:45.214Z,11.49
2023-03-21T17:39:47.789Z,11.45
2023-03-21T17:43:51.563Z,11.45
2023-03-21T17:47:54.800Z,11.35
2023-03-21T17:51:58.734Z,11.29
2023-03-21T17:56:01.257Z,11.25
2023-03-21T18:00:05.141Z,11.28
2023-03-21T18:04:14.406Z,11.23
2023-03-21T18:08:18.341Z,11.18
2023-03-21T18:12:21.385Z,11.20
2023-03-21T18:16:25.029Z,11.24
2023-03-21T18:20:49.772Z,11.18
2023-03-21T18:24:53.317Z,11.11
2023-03-21T18:29:50.041Z,11.05
2023-03-21T18:33:18.954Z,11.13
2023-03-21T18:37:22.109Z,11.11
2023-03-21T18:41:26.071Z,11.14
2023-03-21T18:45:28.932Z,11.15
2023-03-21T18:53:54.535Z,11.25
2023-03-21T18:57:58.351Z,11.33
2023-03-21T19:02:01.352Z,11.20
2023-03-21T19:06:04.629Z,11.10
2023-03-21T19:10:20.168Z,11.09
2023-03-21T19:14:24.417Z,10.91
2023-03-21T19:18:46.171Z,10.68
2023-03-21T19:22:49.635Z,10.67
2023-03-21T19:26:52.190Z,10.64
2023-03-21T19:30:56.306Z,10.68
2023-03-21T19:34:58.830Z,10.63
2023-03-21T19:39:01.361Z,10.57
2023-03-21T19:43:21.536Z,10.57
2023-03-21T19:47:28.377Z,10.36
2023-03-21T19:51:32.063Z,10.39
2023-03-21T19:55:34.926Z,10.35
2023-03-21T19:59:38.611Z,10.34
2023-03-21T20:03:44.155Z,10.32
2023-03-21T20:07:47.138Z,10.36
2023-03-21T20:11:50.000Z,10.26
2023-03-21T20:15:55.404Z,10.28
2023-03-21T20:20:00.042Z,10.34
2023-03-21T20:24:03.620Z,10.32
2023-03-21T20:28:15.834Z,10.31
2023-03-21T20:32:19.655Z,10.28
2023-03-21T20:36:41.270Z,10.54
2023-03-21T20:40:45.611Z,10.65
2023-03-21T20:44:58.468Z,10.67
2023-03-21T20:49:01.611Z,10.70
2023-03-21T20:53:07.623Z,10.66
2023-03-21T20:57:10.744Z,10.64
2023-03-21T21:01:15.538Z,10.75
2023-03-21T21:05:30.758Z,10.80
2023-03-21T21:09:35.978Z,10.86
2023-03-21T21:13:38.782Z,10.88
2023-03-21T21:22:04.700Z,10.91
2023-03-21T21:26:10.162Z,10.89
2023-03-21T21:30:14.074Z,10.91
2023-03-21T21:34:18.032Z,10.88
2023-03-21T21:38:20.824Z,10.86
2023-03-21T21:42:24.895Z,10.73
2023-03-21T21:46:27.447Z,10.74
2023-03-21T21:50:30.042Z,10.72
2023-03-21T21:54:34.092Z,10.69
2023-03-21T21:58:38.720Z,10.52
